createdAt,value
2019-03-23T00:01:37.359Z,8.10
2019-03-23T00:04:05.833Z,8.20
2019-03-23T00:06:34.403Z,7.80
2019-03-23T00:09:03.807Z,7.80
2019-03-23T00:11:32.236Z,7.70
2019-03-23T00:14:00.665Z,7.70
2019-03-23T00:16:29.049Z,7.50
2019-03-23T00:18:57.519Z,7.50
2019-03-23T00:21:26.000Z,7.40
2019-03-23T00:23:54.395Z,7.30
2019-03-23T00:26:22.789Z,7.40
2019-03-23T00:28:51.206Z,7.50
2019-03-23T00:31:19.603Z,7.30
2019-03-23T00:33:48.127Z,7.50
2019-03-23T00:36:16.499Z,7.40
2019-03-23T00:38:44.887Z,7.40
2019-03-23T00:41:14.359Z,7.50
2019-03-23T00:43:42.785Z,7.50
2019-03-23T00:46:11.181Z,7.50
2019-03-23T00:48:39.630Z,7.50
2019-03-23T00:51:08.096Z,7.60
2019-03-23T00:53:36.490Z,7.70
2019-03-23T00:56:04.911Z,7.60
2019-03-23T00:58:33.314Z,7.70
2019-03-23T01:01:01.793Z,7.60
2019-03-23T01:03:30.223Z,7.50
2019-03-23T01:05:58.727Z,7.60
2019-03-23T01:08:27.119Z,7.60
2019-03-23T01:10:55.589Z,7.60
2019-03-23T01:13:23.988Z,7.70
2019-03-23T01:15:52.471Z,7.70
2019-03-23T01:18:20.870Z,7.60
2019-03-23T01:20:50.023Z,7.70
2019-03-23T01:23:18.670Z,7.80
2019-03-23T01:25:47.067Z,7.80
2019-03-23T01:28:15.528Z,7.90
2019-03-23T01:30:43.991Z,7.80
2019-03-23T01:33:12.382Z,7.90
2019-03-23T01:35:40.821Z,7.90
2019-03-23T01:38:09.361Z,7.80
2019-03-23T01:40:37.772Z,7.70
2019-03-23T01:43:06.291Z,7.80
2019-03-23T01:45:54.129Z,7.90
2019-03-23T01:48:22.538Z,7.70
2019-03-23T01:50:50.930Z,7.80
2019-03-23T01:53:19.412Z,7.80
2019-03-23T01:55:47.836Z,7.90
2019-03-23T01:58:16.262Z,7.80
2019-03-23T02:00:44.686Z,7.80
2019-03-23T02:03:13.080Z,7.70
2019-03-23T02:05:41.612Z,7.50
2019-03-23T02:08:10.044Z,7.50
2019-03-23T02:10:38.444Z,7.60
2019-03-23T02:13:06.907Z,7.60
2019-03-23T02:15:35.308Z,7.60
2019-03-23T02:18:03.708Z,7.60
2019-03-23T02:20:32.167Z,7.60
2019-03-23T02:23:00.551Z,7.70
2019-03-23T02:25:28.957Z,7.50
2019-03-23T02:27:57.347Z,7.60
2019-03-23T02:30:25.771Z,7.50
2019-03-23T02:32:54.149Z,7.50
2019-03-23T02:35:22.562Z,7.50
2019-03-23T02:37:50.952Z,7.40
2019-03-23T02:40:19.364Z,7.30
2019-03-23T02:42:47.753Z,7.30
2019-03-23T02:45:16.206Z,7.20
2019-03-23T02:47:44.673Z,7.30
2019-03-23T02:50:13.093Z,7.20
2019-03-23T02:52:41.535Z,7.20
2019-03-23T02:55:10.435Z,7.10
2019-03-23T02:57:38.858Z,7.20
2019-03-23T03:00:14.607Z,7.20
2019-03-23T03:02:43.016Z,7.10
2019-03-23T03:05:11.485Z,7.10
2019-03-23T03:07:42.616Z,7.20
2019-03-23T03:10:11.317Z,7.10
2019-03-23T03:12:39.725Z,7.10
2019-03-23T03:15:09.015Z,7.10
2019-03-23T03:17:37.405Z,7.00
2019-03-23T03:20:07.617Z,6.90
2019-03-23T03:22:36.105Z,6.90
2019-03-23T03:25:06.399Z,6.80
2019-03-23T03:27:34.827Z,6.90
2019-03-23T03:30:03.571Z,6.80
2019-03-23T03:32:32.072Z,6.80
2019-03-23T03:35:00.755Z,6.80
2019-03-23T03:37:29.234Z,6.80
2019-03-23T03:39:57.767Z,6.70
2019-03-23T03:42:26.216Z,6.70
2019-03-23T03:44:54.588Z,6.70
2019-03-23T03:47:23.020Z,6.70
2019-03-23T03:49:51.420Z,6.60
2019-03-23T03:52:19.879Z,6.60
2019-03-23T03:54:48.290Z,6.60
2019-03-23T03:57:16.699Z,6.50
2019-03-23T03:59:45.191Z,6.50
2019-03-23T04:02:13.591Z,6.50
2019-03-23T04:04:42.144Z,6.50
2019-03-23T04:07:10.528Z,6.50
2019-03-23T04:09:40.459Z,6.40
2019-03-23T04:12:09.078Z,6.40
2019-03-23T04:14:37.461Z,6.30
2019-03-23T04:17:05.922Z,6.40
2019-03-23T04:19:34.321Z,6.40
2019-03-23T04:22:02.924Z,6.40
2019-03-23T04:24:31.292Z,6.40
2019-03-23T04:27:01.418Z,6.40
2019-03-23T04:29:29.840Z,6.40
2019-03-23T04:31:58.364Z,6.30
2019-03-23T04:34:26.753Z,6.30
2019-03-23T04:36:55.226Z,6.30
2019-03-23T04:39:23.641Z,6.20
2019-03-23T04:41:53.051Z,6.30
2019-03-23T04:44:21.465Z,6.30
2019-03-23T04:46:49.888Z,6.30
2019-03-23T04:49:18.309Z,6.30
2019-03-23T04:51:46.765Z,6.40
2019-03-23T04:54:15.204Z,6.30
2019-03-23T04:56:43.855Z,6.30
2019-03-23T04:59:12.490Z,6.40
2019-03-23T05:01:40.868Z,6.30
2019-03-23T05:04:12.788Z,6.30
2019-03-23T05:06:42.592Z,6.30
2019-03-23T05:09:11.126Z,6.30
2019-03-23T05:11:39.577Z,6.30
2019-03-23T05:14:08.024Z,6.30
2019-03-23T05:16:36.414Z,6.30
2019-03-23T05:19:04.823Z,6.40
2019-03-23T05:21:33.339Z,6.30
2019-03-23T05:24:01.802Z,6.30
2019-03-23T05:26:30.211Z,6.40
2019-03-23T05:28:58.799Z,6.30
2019-03-23T05:31:27.187Z,6.30
2019-03-23T05:33:55.626Z,6.40
2019-03-23T05:36:24.170Z,6.30
2019-03-23T05:38:52.698Z,6.40
2019-03-23T05:41:21.168Z,6.40
2019-03-23T05:43:49.565Z,6.30
2019-03-23T05:46:18.003Z,6.30
2019-03-23T05:48:46.381Z,6.40
2019-03-23T05:51:14.801Z,7.10
2019-03-23T05:53:43.254Z,6.90
2019-03-23T05:56:11.698Z,6.90
2019-03-23T05:58:40.089Z,6.70
2019-03-23T06:01:12.543Z,6.70
2019-03-23T06:03:40.989Z,6.70
2019-03-23T06:06:09.511Z,6.60
2019-03-23T06:08:37.909Z,6.60
2019-03-23T06:11:06.325Z,6.70
2019-03-23T06:13:34.808Z,6.80
2019-03-23T06:16:03.221Z,6.80
2019-03-23T06:18:31.635Z,6.90
2019-03-23T06:21:03.268Z,7.00
2019-03-23T06:23:31.702Z,7.00
2019-03-23T06:26:00.102Z,7.20
2019-03-23T06:28:28.582Z,7.20
2019-03-23T06:30:57.013Z,7.30
2019-03-23T06:33:25.425Z,7.50
2019-03-23T06:35:53.804Z,7.60
2019-03-23T06:38:22.220Z,7.70
2019-03-23T06:40:51.650Z,7.80
2019-03-23T06:43:20.116Z,7.90
2019-03-23T06:45:48.493Z,7.90
2019-03-23T06:48:17.053Z,7.80
2019-03-23T06:50:45.453Z,7.90
2019-03-23T06:53:13.846Z,7.80
2019-03-23T06:55:42.284Z,8.00
2019-03-23T06:58:10.675Z,7.80
2019-03-23T07:00:39.113Z,7.80
2019-03-23T07:03:07.504Z,7.90
2019-03-23T07:05:35.929Z,7.90
2019-03-23T07:08:04.338Z,8.10
2019-03-23T07:10:32.778Z,8.00
2019-03-23T07:13:01.219Z,8.10
2019-03-23T07:15:29.742Z,8.20
2019-03-23T07:17:58.190Z,8.20
2019-03-23T07:20:26.597Z,8.30
2019-03-23T07:22:55.098Z,8.40
2019-03-23T07:25:23.497Z,8.40
2019-03-23T07:27:51.942Z,8.30
2019-03-23T07:30:20.488Z,8.40
2019-03-23T07:32:49.029Z,8.50
2019-03-23T07:35:17.737Z,8.70
2019-03-23T07:37:46.172Z,8.60
2019-03-23T07:40:14.627Z,8.60
2019-03-23T07:42:48.561Z,8.70
2019-03-23T07:45:17.003Z,8.70
2019-03-23T07:47:45.421Z,8.80
2019-03-23T07:50:14.581Z,8.90
2019-03-23T07:52:43.066Z,9.00
2019-03-23T07:55:13.882Z,9.20
2019-03-23T07:57:42.269Z,9.20
2019-03-23T08:00:13.491Z,9.00
2019-03-23T08:02:41.933Z,9.00
2019-03-23T08:05:10.519Z,9.00
2019-03-23T08:07:38.918Z,9.10
2019-03-23T08:10:08.142Z,9.00
2019-03-23T08:12:36.557Z,9.10
2019-03-23T08:15:08.890Z,9.10
2019-03-23T08:17:37.276Z,9.10
2019-03-23T08:20:06.756Z,9.00
2019-03-23T08:22:35.173Z,9.10
2019-03-23T08:25:05.102Z,9.20
2019-03-23T08:27:33.517Z,9.30
2019-03-23T08:30:01.948Z,9.30
2019-03-23T08:32:30.359Z,9.50
2019-03-23T08:34:58.795Z,9.30
2019-03-23T08:37:27.206Z,9.40
2019-03-23T08:39:55.589Z,9.50
2019-03-23T08:42:24.060Z,9.70
2019-03-23T08:44:52.460Z,9.60
2019-03-23T08:47:20.919Z,9.60
2019-03-23T08:49:49.305Z,9.60
2019-03-23T08:52:17.763Z,9.60
2019-03-23T08:54:46.206Z,9.80
2019-03-23T08:57:14.577Z,9.80
2019-03-23T08:59:43.040Z,9.60
2019-03-23T09:02:11.417Z,9.70
2019-03-23T09:04:39.886Z,9.90
2019-03-23T09:07:08.330Z,10.10
2019-03-23T09:09:36.794Z,10.10
2019-03-23T09:12:05.228Z,9.90
2019-03-23T09:14:33.690Z,10.10
2019-03-23T09:17:02.084Z,10.00
2019-03-23T09:19:30.560Z,10.20
2019-03-23T09:21:58.988Z,11.10
2019-03-23T09:24:27.406Z,10.70
2019-03-23T09:26:55.826Z,10.50
2019-03-23T09:29:24.358Z,10.20
2019-03-23T09:31:52.745Z,10.20
2019-03-23T09:34:21.253Z,10.20
2019-03-23T09:36:49.695Z,10.20
2019-03-23T09:39:18.153Z,10.40
2019-03-23T09:41:46.543Z,10.40
2019-03-23T09:44:15.049Z,10.50
2019-03-23T09:46:43.452Z,10.50
2019-03-23T09:49:11.866Z,10.60
2019-03-23T09:51:40.275Z,10.70
2019-03-23T09:54:08.760Z,10.60
2019-03-23T09:56:37.157Z,10.50
2019-03-23T09:59:05.558Z,10.60
2019-03-23T10:01:34.066Z,10.60
2019-03-23T10:04:02.459Z,10.70
2019-03-23T10:06:31.174Z,10.70
2019-03-23T10:08:59.620Z,11.20
2019-03-23T10:11:28.456Z,11.30
2019-03-23T10:13:56.846Z,11.60
2019-03-23T10:16:25.854Z,11.80
2019-03-23T10:18:55.733Z,11.90
2019-03-23T10:21:32.781Z,11.60
2019-03-23T10:24:01.160Z,11.00
2019-03-23T10:26:29.805Z,11.20
2019-03-23T10:28:58.206Z,10.90
2019-03-23T10:31:26.596Z,10.80
2019-03-23T10:33:55.100Z,11.00
2019-03-23T10:36:23.561Z,11.60
2019-03-23T10:38:51.976Z,10.70
2019-03-23T10:41:20.361Z,10.40
2019-03-23T10:43:48.799Z,10.70
2019-03-23T10:46:17.223Z,11.30
2019-03-23T10:48:45.718Z,11.70
2019-03-23T10:51:15.109Z,10.90
2019-03-23T10:53:43.545Z,10.70
2019-03-23T10:56:11.993Z,10.60
2019-03-23T10:58:40.386Z,10.40
2019-03-23T11:01:09.834Z,10.50
2019-03-23T11:03:38.235Z,10.50
2019-03-23T11:06:06.650Z,10.40
2019-03-23T11:08:35.042Z,10.80
2019-03-23T11:11:03.473Z,10.70
2019-03-23T11:13:31.858Z,10.70
2019-03-23T11:16:00.254Z,10.70
2019-03-23T11:18:28.679Z,10.60
2019-03-23T11:20:57.162Z,10.50
2019-03-23T11:23:25.610Z,10.50
2019-03-23T11:26:01.327Z,10.50
2019-03-23T11:28:29.825Z,10.50
2019-03-23T11:30:59.341Z,10.70
2019-03-23T11:33:27.734Z,10.80
2019-03-23T11:35:57.948Z,10.80
2019-03-23T11:38:26.225Z,10.80
2019-03-23T11:40:55.359Z,10.70
2019-03-23T11:43:23.887Z,10.70
2019-03-23T11:45:52.298Z,10.40
2019-03-23T11:48:20.802Z,10.20
2019-03-23T11:50:49.214Z,10.00
2019-03-23T11:53:17.662Z,9.90
2019-03-23T11:55:46.139Z,10.00
2019-03-23T11:58:14.590Z,10.00
2019-03-23T12:00:42.973Z,9.80
2019-03-23T12:03:11.536Z,9.70
2019-03-23T12:05:40.962Z,9.70
2019-03-23T12:08:09.345Z,9.80
2019-03-23T12:10:37.877Z,9.80
2019-03-23T12:13:06.305Z,9.70
2019-03-23T12:15:34.770Z,9.70
2019-03-23T12:18:03.170Z,9.60
2019-03-23T12:20:31.649Z,9.80
2019-03-23T12:23:00.057Z,9.90
2019-03-23T12:25:28.478Z,9.90
2019-03-23T12:27:56.889Z,9.90
2019-03-23T12:30:25.332Z,9.80
2019-03-23T12:32:53.737Z,9.90
2019-03-23T12:35:22.147Z,9.60
2019-03-23T12:37:50.538Z,9.60
2019-03-23T12:40:18.965Z,9.50
2019-03-23T12:42:47.355Z,9.70
2019-03-23T12:45:15.979Z,10.00
2019-03-23T12:47:44.474Z,10.10
2019-03-23T12:50:12.980Z,10.10
2019-03-23T12:52:41.376Z,10.40
2019-03-23T12:55:13.832Z,10.60
2019-03-23T12:57:42.213Z,10.70
2019-03-23T13:00:15.537Z,10.30
2019-03-23T13:02:43.916Z,10.20
2019-03-23T13:05:12.335Z,10.50
2019-03-23T13:07:40.744Z,10.60
2019-03-23T13:10:11.575Z,10.60
2019-03-23T13:12:39.981Z,10.50
2019-03-23T13:15:10.445Z,10.80
2019-03-23T13:17:38.892Z,11.00
2019-03-23T13:20:08.814Z,11.20
2019-03-23T13:22:37.381Z,11.00
2019-03-23T13:25:10.174Z,11.00
2019-03-23T13:27:38.708Z,10.90
2019-03-23T13:30:09.539Z,11.10
2019-03-23T13:32:38.006Z,11.70
2019-03-23T13:35:06.423Z,11.80
2019-03-23T13:37:34.811Z,11.70
2019-03-23T13:40:04.095Z,11.20
2019-03-23T13:42:34.117Z,11.40
2019-03-23T13:45:02.714Z,11.40
2019-03-23T13:47:31.121Z,11.20
2019-03-23T13:49:59.596Z,11.30
2019-03-23T13:52:28.042Z,11.40
2019-03-23T13:54:56.492Z,11.70
2019-03-23T13:57:24.874Z,11.50
2019-03-23T13:59:53.318Z,11.80
2019-03-23T14:02:21.773Z,11.70
2019-03-23T14:04:50.429Z,11.70
2019-03-23T14:07:18.795Z,12.00
2019-03-23T14:09:47.275Z,12.00
2019-03-23T14:12:15.715Z,12.10
2019-03-23T14:14:47.302Z,12.50
2019-03-23T14:17:15.765Z,12.90
2019-03-23T14:19:45.165Z,12.60
2019-03-23T14:22:13.623Z,12.90
2019-03-23T14:24:42.052Z,13.60
2019-03-23T14:27:10.442Z,13.80
2019-03-23T14:29:38.842Z,14.10
2019-03-23T14:32:07.267Z,14.00
2019-03-23T14:34:35.663Z,13.80
2019-03-23T14:37:05.090Z,13.70
2019-03-23T14:39:33.481Z,13.80
2019-03-23T14:42:04.968Z,14.50
2019-03-23T14:44:32.058Z,13.90
2019-03-23T14:47:01.534Z,14.10
2019-03-23T14:49:29.918Z,12.90
2019-03-23T14:51:58.360Z,13.10
2019-03-23T14:54:26.847Z,13.50
2019-03-23T14:56:55.391Z,13.50
2019-03-23T14:59:23.935Z,12.80
2019-03-23T15:01:52.363Z,12.50
2019-03-23T15:04:20.890Z,12.40
2019-03-23T15:06:49.287Z,11.90
2019-03-23T15:09:17.805Z,12.10
2019-03-23T15:11:46.187Z,12.90
2019-03-23T15:14:14.710Z,13.00
2019-03-23T15:16:43.151Z,12.80
2019-03-23T15:19:11.653Z,12.60
2019-03-23T15:21:40.037Z,13.00
2019-03-23T15:24:08.589Z,13.20
2019-03-23T15:26:37.127Z,12.80
2019-03-23T15:29:05.633Z,12.60
2019-03-23T15:31:34.022Z,12.40
2019-03-23T15:34:02.543Z,13.00
2019-03-23T15:36:30.945Z,13.00
2019-03-23T15:38:59.370Z,12.60
2019-03-23T15:41:27.786Z,12.70
2019-03-23T15:43:56.262Z,11.80
2019-03-23T15:46:24.666Z,11.50
2019-03-23T15:48:53.123Z,11.90
2019-03-23T15:51:21.554Z,11.80
2019-03-23T15:53:50.091Z,11.90
2019-03-23T15:56:18.463Z,12.10
2019-03-23T15:58:46.914Z,11.20
2019-03-23T16:01:15.322Z,11.00
2019-03-23T16:03:44.796Z,11.10
2019-03-23T16:06:13.185Z,10.90
2019-03-23T16:08:41.598Z,11.00
2019-03-23T16:11:10.021Z,11.40
2019-03-23T16:13:38.481Z,11.60
2019-03-23T16:16:07.899Z,11.40
2019-03-23T16:18:36.305Z,11.50
2019-03-23T16:21:04.708Z,11.20
2019-03-23T16:23:33.145Z,11.00
2019-03-23T16:26:01.546Z,10.70
2019-03-23T16:28:30.021Z,10.90
2019-03-23T16:30:59.439Z,10.90
2019-03-23T16:33:27.812Z,10.50
2019-03-23T16:35:56.226Z,10.40
2019-03-23T16:38:24.667Z,10.40
2019-03-23T16:40:53.081Z,10.10
2019-03-23T16:43:23.525Z,10.20
2019-03-23T16:45:51.933Z,10.00
2019-03-23T16:48:20.477Z,9.90
2019-03-23T16:50:48.888Z,9.80
2019-03-23T16:53:17.314Z,9.80
2019-03-23T16:55:45.784Z,9.60
2019-03-23T16:58:16.431Z,9.60
2019-03-23T17:00:44.353Z,9.80
2019-03-23T17:03:12.802Z,9.50
2019-03-23T17:05:42.329Z,9.70
2019-03-23T17:08:10.710Z,9.80
2019-03-23T17:10:39.177Z,9.60
2019-03-23T17:13:07.557Z,9.50
2019-03-23T17:15:35.992Z,9.50
2019-03-23T17:18:04.438Z,9.30
2019-03-23T17:20:32.896Z,9.10
2019-03-23T17:23:01.323Z,9.20
2019-03-23T17:25:29.795Z,9.30
2019-03-23T17:27:58.158Z,9.20
2019-03-23T17:30:34.995Z,9.30
2019-03-23T17:33:03.377Z,9.40
2019-03-23T17:35:31.827Z,9.40
2019-03-23T17:38:00.276Z,9.30
2019-03-23T17:40:28.737Z,9.40
2019-03-23T17:43:05.614Z,9.10
2019-03-23T17:45:27.262Z,9.10
2019-03-23T17:47:55.708Z,9.00
2019-03-23T17:50:24.111Z,9.10
2019-03-23T17:52:52.546Z,9.10
2019-03-23T17:55:20.951Z,8.90
2019-03-23T17:57:50.321Z,9.10
2019-03-23T18:00:31.593Z,8.60
2019-03-23T18:03:26.947Z,8.30
2019-03-23T18:05:55.970Z,8.10
2019-03-23T18:08:24.813Z,8.10
2019-03-23T18:10:53.686Z,8.10
2019-03-23T18:19:52.087Z,7.80
2019-03-23T18:22:20.497Z,7.70
2019-03-23T18:24:48.910Z,7.70
2019-03-23T18:27:17.358Z,7.50
2019-03-23T18:29:47.501Z,7.50
2019-03-23T18:32:16.055Z,7.40
2019-03-23T18:34:44.571Z,7.40
2019-03-23T18:37:13.004Z,7.30
2019-03-23T18:39:54.121Z,7.20
2019-03-23T18:42:22.507Z,7.20
2019-03-23T18:44:51.024Z,7.20
2019-03-23T18:47:30.382Z,7.20
2019-03-23T18:49:57.660Z,7.10
2019-03-23T18:52:26.134Z,7.10
2019-03-23T18:54:54.716Z,7.00
2019-03-23T18:57:29.141Z,7.00
2019-03-23T18:59:57.582Z,7.00
2019-03-23T19:02:26.008Z,6.90
2019-03-23T19:04:54.587Z,6.90
2019-03-23T19:07:23.031Z,6.80
2019-03-23T19:09:51.444Z,6.80
2019-03-23T19:12:19.963Z,6.70
2019-03-23T19:14:48.370Z,6.70
2019-03-23T19:17:16.794Z,6.70
2019-03-23T19:19:45.381Z,6.70
2019-03-23T19:22:13.853Z,6.70
2019-03-23T19:24:42.248Z,6.70
2019-03-23T19:27:10.658Z,7.00
2019-03-23T19:29:39.046Z,6.90
2019-03-23T19:32:07.493Z,6.80
2019-03-23T19:34:35.901Z,6.70
2019-03-23T19:37:04.295Z,6.60
2019-03-23T19:39:32.730Z,6.50
2019-03-23T19:42:01.132Z,6.50
2019-03-23T19:44:30.780Z,6.50
2019-03-23T19:46:59.560Z,6.50
2019-03-23T19:49:31.885Z,6.50
2019-03-23T19:52:00.619Z,6.40
2019-03-23T19:54:29.088Z,6.40
2019-03-23T19:56:57.688Z,6.50
2019-03-23T19:59:26.239Z,6.50
2019-03-23T20:01:55.558Z,6.50
2019-03-23T20:04:23.907Z,6.50
2019-03-23T20:06:52.355Z,6.50
2019-03-23T20:09:20.838Z,6.50
2019-03-23T20:11:49.411Z,6.50
2019-03-23T20:14:19.191Z,6.50
2019-03-23T20:16:47.826Z,6.40
2019-03-23T20:19:16.593Z,6.40
2019-03-23T20:21:45.067Z,6.30
2019-03-23T20:24:13.774Z,6.30
2019-03-23T20:26:42.476Z,6.20
2019-03-23T20:29:10.796Z,6.10
2019-03-23T20:31:39.241Z,6.20
2019-03-23T20:34:07.789Z,6.20
2019-03-23T20:36:36.139Z,6.10
2019-03-23T20:39:06.811Z,6.10
2019-03-23T20:41:35.322Z,6.00
2019-03-23T20:44:09.335Z,6.00
2019-03-23T20:46:34.870Z,6.30
2019-03-23T20:49:03.209Z,6.20
2019-03-23T20:51:31.739Z,6.10
2019-03-23T20:54:00.454Z,6.10
2019-03-23T20:56:29.179Z,6.00
2019-03-23T20:58:59.816Z,6.00
2019-03-23T21:01:28.382Z,6.00
2019-03-23T21:03:57.066Z,6.00
2019-03-23T21:06:25.704Z,6.00
2019-03-23T21:08:54.143Z,5.90
2019-03-23T21:11:22.551Z,5.90
2019-03-23T21:13:52.017Z,5.90
2019-03-23T21:16:40.085Z,5.90
2019-03-23T21:19:08.583Z,5.90
2019-03-23T21:21:39.846Z,5.90
2019-03-23T21:24:08.513Z,5.90
2019-03-23T21:26:38.168Z,5.90
2019-03-23T21:29:06.638Z,5.90
2019-03-23T21:31:35.196Z,5.80
2019-03-23T21:34:06.252Z,5.80
2019-03-23T21:36:35.404Z,5.70
2019-03-23T21:39:05.784Z,5.70
2019-03-23T21:41:34.233Z,5.60
2019-03-23T21:44:04.663Z,5.60
2019-03-23T21:46:32.785Z,5.60
2019-03-23T21:49:01.261Z,5.60
2019-03-23T21:51:29.943Z,5.50
2019-03-23T21:53:58.632Z,5.40
2019-03-23T21:56:27.190Z,5.40
2019-03-23T21:58:55.651Z,5.40
2019-03-23T22:01:27.596Z,5.40
2019-03-23T22:03:55.968Z,5.50
2019-03-23T22:06:24.422Z,5.40
2019-03-23T22:08:52.803Z,5.30
2019-03-23T22:11:21.384Z,5.20
2019-03-23T22:13:49.811Z,5.30
2019-03-23T22:16:18.185Z,5.20
2019-03-23T22:18:46.601Z,5.20
2019-03-23T22:21:15.052Z,5.20
2019-03-23T22:23:43.488Z,5.20
2019-03-23T22:26:11.973Z,5.10
2019-03-23T22:28:40.378Z,5.10
2019-03-23T22:31:08.767Z,5.10
2019-03-23T22:33:37.287Z,5.10
2019-03-23T22:36:05.670Z,5.10
2019-03-23T22:38:34.091Z,5.10
2019-03-23T22:41:03.528Z,5.00
2019-03-23T22:43:31.929Z,5.00
2019-03-23T22:46:00.366Z,4.90
2019-03-23T22:48:28.780Z,5.00
2019-03-23T22:50:57.214Z,5.00
2019-03-23T22:53:25.726Z,5.00
2019-03-23T22:55:54.120Z,4.90
2019-03-23T22:58:22.520Z,4.90
2019-03-23T23:00:50.984Z,4.90
2019-03-23T23:03:19.391Z,5.00
2019-03-23T23:05:47.778Z,4.90
2019-03-23T23:08:16.429Z,4.90
2019-03-23T23:10:44.821Z,4.90
2019-03-23T23:13:13.552Z,4.90
2019-03-23T23:15:41.979Z,4.90
2019-03-23T23:18:10.359Z,5.00
2019-03-23T23:20:38.763Z,4.90
2019-03-23T23:23:07.149Z,5.00
2019-03-23T23:25:55.014Z,4.90
2019-03-23T23:28:23.519Z,5.00
2019-03-23T23:30:51.922Z,5.00
2019-03-23T23:33:20.322Z,5.10
2019-03-23T23:35:48.773Z,5.20
2019-03-23T23:38:17.150Z,5.20
2019-03-23T23:40:45.583Z,5.20
2019-03-23T23:43:13.970Z,5.20
2019-03-23T23:45:43.456Z,5.20
2019-03-23T23:48:11.842Z,5.20
2019-03-23T23:50:40.281Z,5.30
2019-03-23T23:53:08.680Z,5.20
2019-03-23T23:55:37.062Z,5.20
2019-03-23T23:58:05.501Z,5.20
